createdAt,value
2018-07-26T00:06:50.586Z,100235.77
2018-07-26T00:16:53.321Z,100234.75
2018-07-26T00:26:56.819Z,100237.77
2018-07-26T00:36:59.293Z,100238.45
2018-07-26T00:47:01.658Z,100248.52
2018-07-26T00:57:04.432Z,100247.50
2018-07-26T01:07:06.960Z,100254.06
2018-07-26T01:17:09.927Z,100254.59
2018-07-26T01:27:12.392Z,100259.22
2018-07-26T01:37:14.898Z,100258.25
2018-07-26T01:47:17.444Z,100250.78
2018-07-26T01:57:20.199Z,100253.67
2018-07-26T02:07:23.009Z,100263.72
2018-07-26T02:17:25.711Z,100254.99
2018-07-26T02:27:28.890Z,100252.05
2018-07-26T02:37:31.551Z,100256.58
2018-07-26T02:47:34.037Z,100258.56
2018-07-26T10:15:07.265Z,100281.45
2018-07-26T10:25:10.168Z,100271.09
2018-07-26T10:35:13.308Z,100274.31
2018-07-26T10:45:16.478Z,100264.64
2018-07-26T10:55:19.561Z,100265.66
2018-07-26T11:05:22.693Z,100267.02
2018-07-26T11:15:27.400Z,100245.28
2018-07-26T11:25:30.436Z,100249.59
2018-07-26T11:35:33.558Z,100232.14
2018-07-26T11:45:36.688Z,100229.30
2018-07-26T11:55:39.817Z,100226.27
2018-07-26T12:05:43.000Z,100209.28
2018-07-26T12:15:46.106Z,100207.58
2018-07-26T12:25:49.229Z,100188.97
2018-07-26T12:35:52.427Z,100188.53
2018-07-26T12:45:55.521Z,100176.92
2018-07-26T12:55:58.695Z,100171.52
2018-07-26T13:06:01.806Z,100176.92
2018-07-26T13:16:05.017Z,100173.25
2018-07-26T13:26:08.086Z,100168.17
2018-07-26T13:36:11.233Z,100157.05
2018-07-26T13:46:14.399Z,100163.14
2018-07-26T13:56:17.533Z,100146.20
2018-07-26T14:06:20.693Z,100134.06
2018-07-26T14:16:23.793Z,100122.94
2018-07-26T14:26:27.096Z,100112.92
2018-07-26T14:36:43.393Z,100115.20
2018-07-26T14:46:47.816Z,100122.75
2018-07-26T14:56:50.929Z,100122.94
2018-07-26T15:06:55.458Z,100112.04
2018-07-26T15:16:58.915Z,100109.33
2018-07-26T15:27:01.953Z,100094.97
2018-07-26T15:37:05.381Z,100100.50
2018-07-26T15:47:09.904Z,100097.45
2018-07-26T15:57:13.066Z,100091.70
2018-07-26T16:07:16.135Z,100093.73
2018-07-26T16:17:19.947Z,100090.96
2018-07-26T16:27:23.043Z,100091.06
2018-07-26T16:37:27.209Z,100097.80
2018-07-26T16:47:30.389Z,100094.85
2018-07-26T16:57:33.489Z,100108.23
2018-07-26T17:07:36.612Z,100114.78
2018-07-26T17:17:39.831Z,100123.61
2018-07-26T17:27:42.905Z,100129.72
2018-07-26T17:37:45.722Z,100138.16
2018-07-26T17:47:48.883Z,100136.66
2018-07-26T17:57:51.921Z,100144.06
2018-07-26T18:07:57.138Z,100149.63
2018-07-26T18:18:00.210Z,100152.70
2018-07-26T18:28:03.199Z,100160.44
2018-07-26T18:38:06.405Z,100155.05
2018-07-26T18:48:09.489Z,100170.70
2018-07-26T18:58:12.612Z,100183.31
2018-07-26T19:08:15.786Z,100198.31
2018-07-26T19:18:18.870Z,100202.86
2018-07-26T19:28:21.995Z,100215.34
2018-07-26T19:38:25.260Z,100220.70
2018-07-26T19:48:28.325Z,100230.14
2018-07-26T19:58:31.469Z,100227.44
2018-07-26T20:08:34.673Z,100224.84
2018-07-26T20:18:37.762Z,100229.73
2018-07-26T20:28:40.856Z,100234.42
2018-07-26T20:38:43.977Z,100239.55
2018-07-26T20:48:47.119Z,100239.75
2018-07-26T20:58:50.279Z,100247.50
2018-07-26T21:08:53.765Z,100250.91
2018-07-26T21:18:56.785Z,100243.98
2018-07-26T21:28:59.941Z,100251.71
2018-07-26T21:39:03.310Z,100260.41
2018-07-26T21:49:06.665Z,100248.62
2018-07-26T21:59:09.705Z,100248.61
2018-07-26T22:09:13.149Z,100253.49
2018-07-26T22:19:16.223Z,100249.78
2018-07-26T22:29:19.369Z,100255.95
2018-07-26T22:39:22.517Z,100255.45
2018-07-26T22:49:25.648Z,100258.27
2018-07-26T22:59:28.757Z,100257.39
2018-07-26T23:09:32.505Z,100254.01
2018-07-26T23:19:35.646Z,100261.89
2018-07-26T23:29:38.813Z,100261.02
2018-07-26T23:39:42.242Z,100246.07
2018-07-26T23:49:46.456Z,100237.03
2018-07-26T23:59:49.491Z,100232.95
